createdAt,value
2019-05-15T00:02:20.419Z,8.38
2019-05-15T00:04:50.530Z,8.35
2019-05-15T00:07:20.550Z,8.32
2019-05-15T00:09:50.653Z,8.31
2019-05-15T00:12:20.694Z,8.27
2019-05-15T00:14:50.786Z,8.28
2019-05-15T00:17:20.825Z,8.26
2019-05-15T00:19:50.929Z,8.21
2019-05-15T00:22:20.973Z,8.18
2019-05-15T00:24:51.076Z,8.21
2019-05-15T00:27:21.120Z,8.20
2019-05-15T00:29:51.214Z,8.22
2019-05-15T00:32:21.264Z,8.20
2019-05-15T00:34:51.352Z,8.18
2019-05-15T00:37:21.387Z,8.21
2019-05-15T00:39:51.477Z,8.18
2019-05-15T00:42:21.509Z,8.14
2019-05-15T00:44:51.608Z,8.15
2019-05-15T00:47:21.635Z,8.10
2019-05-15T00:49:51.743Z,8.08
2019-05-15T00:52:21.877Z,8.09
2019-05-15T00:54:51.960Z,8.06
2019-05-15T00:57:21.998Z,8.04
2019-05-15T00:59:52.101Z,8.03
2019-05-15T01:02:22.144Z,7.99
2019-05-15T01:04:53.602Z,8.01
2019-05-15T01:07:23.666Z,7.98
2019-05-15T01:09:53.771Z,7.98
2019-05-15T01:12:23.809Z,7.95
2019-05-15T01:14:54.084Z,7.83
2019-05-15T01:17:24.126Z,7.72
2019-05-15T01:19:54.231Z,7.58
2019-05-15T01:22:24.262Z,7.43
2019-05-15T01:24:54.349Z,7.36
2019-05-15T01:27:25.828Z,7.27
2019-05-15T01:29:58.041Z,7.19
2019-05-15T01:32:28.400Z,7.17
2019-05-15T01:34:58.734Z,7.07
2019-05-15T01:37:28.862Z,7.03
2019-05-15T01:39:58.959Z,6.98
2019-05-15T01:42:29.035Z,6.97
2019-05-15T01:44:59.141Z,6.92
2019-05-15T01:47:29.210Z,6.89
2019-05-15T01:49:59.314Z,6.90
2019-05-15T01:52:29.406Z,6.86
2019-05-15T01:54:59.497Z,6.84
2019-05-15T01:57:29.566Z,6.80
2019-05-15T02:00:00.986Z,6.81
2019-05-15T02:02:31.097Z,6.84
2019-05-15T02:05:01.500Z,6.80
2019-05-15T02:07:31.582Z,6.82
2019-05-15T02:10:01.706Z,6.77
2019-05-15T02:12:31.765Z,6.79
2019-05-15T02:15:01.870Z,6.77
2019-05-15T02:17:31.930Z,6.71
2019-05-15T02:20:02.029Z,6.74
2019-05-15T02:22:32.091Z,6.70
2019-05-15T02:25:02.492Z,6.68
2019-05-15T02:27:32.587Z,6.62
2019-05-15T02:30:21.061Z,6.63
2019-05-15T02:32:34.448Z,6.63
2019-05-15T02:35:09.535Z,6.58
2019-05-15T02:37:41.169Z,6.56
2019-05-15T02:40:10.682Z,6.53
2019-05-15T02:42:40.892Z,6.50
2019-05-15T02:45:10.995Z,6.49
2019-05-15T02:47:41.083Z,6.43
2019-05-15T02:50:11.514Z,6.40
2019-05-15T02:52:45.137Z,6.33
2019-05-15T02:55:13.424Z,6.34
2019-05-15T02:57:43.494Z,6.36
2019-05-15T03:00:35.301Z,6.29
2019-05-15T03:02:45.683Z,6.27
2019-05-15T03:05:15.894Z,6.24
2019-05-15T03:07:49.073Z,6.16
2019-05-15T03:10:19.999Z,6.16
2019-05-15T03:12:49.707Z,6.14
2019-05-15T03:15:19.827Z,6.10
2019-05-15T03:17:49.886Z,6.13
2019-05-15T03:20:19.994Z,6.06
2019-05-15T03:22:50.057Z,6.09
2019-05-15T03:25:20.160Z,6.08
2019-05-15T03:27:50.235Z,6.08
2019-05-15T03:30:22.012Z,6.03
2019-05-15T03:33:01.530Z,6.04
2019-05-15T03:35:32.163Z,5.98
2019-05-15T03:37:59.899Z,5.96
2019-05-15T03:40:30.150Z,5.96
2019-05-15T03:43:00.207Z,6.00
2019-05-15T03:45:30.309Z,5.97
2019-05-15T03:48:00.393Z,5.98
2019-05-15T03:50:30.499Z,5.97
2019-05-15T03:53:00.598Z,5.94
2019-05-15T03:55:30.676Z,5.95
2019-05-15T03:58:00.753Z,5.98
2019-05-15T04:00:30.879Z,5.93
2019-05-15T04:03:00.948Z,5.96
2019-05-15T04:05:31.033Z,5.92
2019-05-15T04:08:01.110Z,5.92
2019-05-15T04:10:31.211Z,5.91
2019-05-15T04:13:01.285Z,5.88
2019-05-15T04:15:31.748Z,5.92
2019-05-15T04:18:01.811Z,5.87
2019-05-15T04:20:31.905Z,5.90
2019-05-15T04:23:02.083Z,5.90
2019-05-15T04:25:33.059Z,5.96
2019-05-15T04:28:04.859Z,5.92
2019-05-15T04:30:34.952Z,5.90
2019-05-15T04:33:05.028Z,5.91
2019-05-15T04:35:35.141Z,5.92
2019-05-15T04:38:05.223Z,5.88
2019-05-15T04:40:35.312Z,5.85
2019-05-15T04:43:05.372Z,5.88
2019-05-15T04:45:35.692Z,5.87
2019-05-15T04:48:10.146Z,5.88
2019-05-15T04:50:40.093Z,5.86
2019-05-15T04:53:11.226Z,5.78
2019-05-15T04:55:41.376Z,5.80
2019-05-15T04:58:11.441Z,5.81
2019-05-15T05:00:55.148Z,5.83
2019-05-15T05:03:28.866Z,5.80
2019-05-15T05:05:59.121Z,5.81
2019-05-15T05:08:29.358Z,5.84
2019-05-15T05:10:59.530Z,5.81
2019-05-15T05:13:29.611Z,5.81
2019-05-15T05:15:59.726Z,5.80
2019-05-15T05:18:30.052Z,5.86
2019-05-15T05:21:00.172Z,5.82
2019-05-15T05:23:30.448Z,5.81
2019-05-15T05:26:00.526Z,5.82
2019-05-15T05:28:30.605Z,5.78
2019-05-15T05:31:00.684Z,5.77
2019-05-15T05:33:30.763Z,5.80
2019-05-15T05:36:01.555Z,5.77
2019-05-15T05:38:31.630Z,5.75
2019-05-15T05:41:01.719Z,5.75
2019-05-15T05:43:32.089Z,5.81
2019-05-15T05:46:02.166Z,5.79
2019-05-15T05:48:32.222Z,5.80
2019-05-15T05:51:02.321Z,5.77
2019-05-15T05:53:32.374Z,5.76
2019-05-15T05:56:02.463Z,5.80
2019-05-15T05:58:32.533Z,5.81
2019-05-15T06:01:02.628Z,5.78
2019-05-15T06:03:32.684Z,5.77
2019-05-15T06:06:02.800Z,5.81
2019-05-15T06:08:32.851Z,5.85
2019-05-15T06:11:03.011Z,5.91
2019-05-15T06:13:33.084Z,5.89
2019-05-15T06:16:03.192Z,5.96
2019-05-15T06:18:33.265Z,5.92
2019-05-15T06:21:03.367Z,6.00
2019-05-15T06:23:35.725Z,5.99
2019-05-15T06:26:05.227Z,5.99
2019-05-15T06:28:35.312Z,6.06
2019-05-15T06:31:05.392Z,6.10
2019-05-15T06:33:35.463Z,6.10
2019-05-15T06:36:05.562Z,6.12
2019-05-15T06:38:35.637Z,6.16
2019-05-15T06:41:05.736Z,6.16
2019-05-15T06:43:35.997Z,6.20
2019-05-15T06:46:06.118Z,6.25
2019-05-15T06:48:38.014Z,6.35
2019-05-15T06:51:08.816Z,6.38
2019-05-15T06:53:39.232Z,6.38
2019-05-15T06:56:09.332Z,6.47
2019-05-15T06:58:39.409Z,6.51
2019-05-15T07:01:09.511Z,6.57
2019-05-15T07:03:39.677Z,6.58
2019-05-15T07:06:09.820Z,6.65
2019-05-15T07:08:39.912Z,6.78
2019-05-15T07:11:09.983Z,6.75
2019-05-15T07:13:40.038Z,6.81
2019-05-15T07:16:10.184Z,6.84
2019-05-15T07:18:40.240Z,6.88
2019-05-15T07:21:10.711Z,6.88
2019-05-15T07:23:40.906Z,6.87
2019-05-15T07:26:10.989Z,6.90
2019-05-15T07:28:41.063Z,6.99
2019-05-15T07:31:11.765Z,6.92
2019-05-15T07:33:43.922Z,6.97
2019-05-15T07:36:13.829Z,7.02
2019-05-15T07:38:43.910Z,7.01
2019-05-15T07:41:13.996Z,7.06
2019-05-15T07:43:44.065Z,7.10
2019-05-15T07:46:14.173Z,7.07
2019-05-15T07:48:44.246Z,7.13
2019-05-15T07:51:14.343Z,7.10
2019-05-15T07:53:44.409Z,7.16
2019-05-15T07:56:14.508Z,7.11
2019-05-15T07:58:44.610Z,7.09
2019-05-15T08:01:14.690Z,7.14
2019-05-15T08:03:56.635Z,7.16
2019-05-15T08:06:17.991Z,7.11
2019-05-15T08:08:48.818Z,7.12
2019-05-15T08:11:23.947Z,7.16
2019-05-15T08:13:50.843Z,7.15
2019-05-15T08:16:20.929Z,7.21
2019-05-15T08:18:51.004Z,7.21
2019-05-15T08:21:21.093Z,7.21
2019-05-15T08:23:51.167Z,7.20
2019-05-15T08:26:21.243Z,7.30
2019-05-15T08:28:51.321Z,7.32
2019-05-15T08:31:21.418Z,7.33
2019-05-15T08:33:51.492Z,7.39
2019-05-15T08:36:21.585Z,7.42
2019-05-15T08:38:51.646Z,7.43
2019-05-15T08:41:21.737Z,7.51
2019-05-15T08:43:51.802Z,7.54
2019-05-15T08:46:21.900Z,7.52
2019-05-15T08:48:51.969Z,7.58
2019-05-15T08:51:22.087Z,7.60
2019-05-15T08:53:52.127Z,7.62
2019-05-15T08:56:22.228Z,7.60
2019-05-15T08:58:52.304Z,7.65
2019-05-15T09:01:22.395Z,7.64
2019-05-15T09:03:52.460Z,7.66
2019-05-15T09:06:23.268Z,7.67
2019-05-15T09:08:53.547Z,7.71
2019-05-15T09:11:23.657Z,7.73
2019-05-15T09:13:54.591Z,7.73
2019-05-15T09:16:24.941Z,7.76
2019-05-15T09:18:55.007Z,7.76
2019-05-15T09:21:25.100Z,7.75
2019-05-15T09:23:55.166Z,7.71
2019-05-15T09:26:25.261Z,7.74
2019-05-15T09:28:55.345Z,7.76
2019-05-15T09:31:25.453Z,7.81
2019-05-15T09:33:55.532Z,7.86
2019-05-15T09:36:25.726Z,7.84
2019-05-15T09:38:58.339Z,7.91
2019-05-15T09:41:28.662Z,7.93
2019-05-15T09:43:58.929Z,8.01
2019-05-15T09:46:29.280Z,8.01
2019-05-15T09:48:59.846Z,8.03
2019-05-15T09:51:29.928Z,8.09
2019-05-15T09:53:59.995Z,8.11
2019-05-15T09:56:30.115Z,8.18
2019-05-15T09:59:00.180Z,8.21
2019-05-15T10:01:30.264Z,8.20
2019-05-15T10:04:00.343Z,8.20
2019-05-15T10:06:30.749Z,8.23
2019-05-15T10:09:00.916Z,8.21
2019-05-15T10:11:31.013Z,8.26
2019-05-15T10:14:01.095Z,8.26
2019-05-15T10:16:31.551Z,8.27
2019-05-15T10:19:01.633Z,8.35
2019-05-15T10:21:32.705Z,8.41
2019-05-15T10:24:02.780Z,8.42
2019-05-15T10:26:32.936Z,8.39
2019-05-15T10:29:03.515Z,8.38
2019-05-15T10:31:33.612Z,8.42
2019-05-15T10:34:03.985Z,8.46
2019-05-15T10:36:34.094Z,8.46
2019-05-15T10:39:08.350Z,8.48
2019-05-15T10:41:38.793Z,8.56
2019-05-15T10:44:09.394Z,8.55
2019-05-15T10:46:39.574Z,8.62
2019-05-15T10:49:09.617Z,8.58
2019-05-15T10:51:39.910Z,8.67
2019-05-15T10:54:09.929Z,8.62
2019-05-15T10:56:40.015Z,8.65
2019-05-15T10:59:10.053Z,8.65
2019-05-15T11:01:40.118Z,8.72
2019-05-15T11:04:10.191Z,8.75
2019-05-15T11:06:40.293Z,8.74
2019-05-15T11:09:10.368Z,8.74
2019-05-15T11:11:40.474Z,8.73
2019-05-15T11:14:10.552Z,8.74
2019-05-15T11:16:40.757Z,8.76
2019-05-15T11:19:10.822Z,8.76
2019-05-15T11:21:43.501Z,8.78
2019-05-15T11:24:12.704Z,8.77
2019-05-15T11:26:42.796Z,8.78
2019-05-15T11:29:12.859Z,8.85
2019-05-15T11:31:42.965Z,8.89
2019-05-15T11:34:13.039Z,8.92
2019-05-15T11:36:43.136Z,8.96
2019-05-15T11:39:13.210Z,8.93
2019-05-15T11:41:43.307Z,8.94
2019-05-15T11:44:13.379Z,8.99
2019-05-15T11:46:43.601Z,9.03
2019-05-15T11:49:13.689Z,9.02
2019-05-15T11:51:43.785Z,9.07
2019-05-15T11:54:13.865Z,9.09
2019-05-15T11:56:43.954Z,9.12
2019-05-15T11:59:14.035Z,9.15
2019-05-15T12:01:44.213Z,9.20
2019-05-15T12:04:26.635Z,9.21
2019-05-15T12:06:58.291Z,9.31
2019-05-15T12:09:18.729Z,9.30
2019-05-15T12:11:49.022Z,9.35
2019-05-15T12:14:19.744Z,9.41
2019-05-15T12:17:05.171Z,9.43
2019-05-15T12:19:21.687Z,9.47
2019-05-15T12:21:51.783Z,9.52
2019-05-15T12:24:21.815Z,9.59
2019-05-15T12:26:51.916Z,9.58
2019-05-15T12:29:21.957Z,9.53
2019-05-15T12:31:52.108Z,9.59
2019-05-15T12:34:22.146Z,9.66
2019-05-15T12:36:57.674Z,9.64
2019-05-15T12:39:29.525Z,9.70
2019-05-15T13:02:08.627Z,9.82
2019-05-15T13:04:39.072Z,9.79
2019-05-15T13:07:13.827Z,9.84
2019-05-15T13:09:40.948Z,9.85
2019-05-15T13:12:11.033Z,9.84
2019-05-15T13:14:41.082Z,9.90
2019-05-15T13:17:11.564Z,9.92
2019-05-15T13:19:41.594Z,9.96
2019-05-15T13:22:19.004Z,9.99
2019-05-15T13:24:43.443Z,10.01
2019-05-15T13:27:13.617Z,10.04
2019-05-15T13:29:44.090Z,10.08
2019-05-15T13:32:14.191Z,10.14
2019-05-15T13:34:44.225Z,10.07
2019-05-15T13:37:26.334Z,10.09
2019-05-15T13:39:48.388Z,10.10
2019-05-15T13:42:18.176Z,10.08
2019-05-15T13:44:48.181Z,10.15
2019-05-15T13:47:18.289Z,10.27
2019-05-15T13:49:48.441Z,10.36
2019-05-15T13:52:18.879Z,10.37
2019-05-15T13:54:48.969Z,10.40
2019-05-15T13:57:19.085Z,10.50
2019-05-15T13:59:49.121Z,10.55
2019-05-15T14:02:19.239Z,10.66
2019-05-15T14:04:49.346Z,10.63
2019-05-15T14:07:19.463Z,10.65
2019-05-15T14:09:49.794Z,10.58
2019-05-15T14:12:19.889Z,10.59
2019-05-15T14:14:49.935Z,10.55
2019-05-15T14:17:20.041Z,10.52
2019-05-15T14:19:50.084Z,10.56
2019-05-15T14:22:20.478Z,10.61
2019-05-15T14:24:50.527Z,10.59
2019-05-15T14:27:20.633Z,10.57
2019-05-15T14:29:50.874Z,10.59
2019-05-15T14:32:34.466Z,10.55
2019-05-15T14:34:52.708Z,10.59
2019-05-15T14:37:22.840Z,10.57
2019-05-15T14:39:52.866Z,10.59
2019-05-15T14:42:22.984Z,10.62
2019-05-15T14:44:53.400Z,10.71
2019-05-15T14:47:26.265Z,10.81
2019-05-15T14:49:55.225Z,10.80
2019-05-15T14:52:25.323Z,10.82
2019-05-15T14:54:55.409Z,10.81
2019-05-15T14:57:25.708Z,10.88
2019-05-15T14:59:57.888Z,10.85
2019-05-15T15:02:27.589Z,10.87
2019-05-15T15:04:59.467Z,10.91
2019-05-15T15:07:29.453Z,10.94
2019-05-15T15:09:59.524Z,11.00
2019-05-15T15:12:29.630Z,11.08
2019-05-15T15:14:59.696Z,11.17
2019-05-15T15:17:29.818Z,11.30
2019-05-15T15:20:00.307Z,11.52
2019-05-15T15:22:30.702Z,11.64
2019-05-15T15:25:01.062Z,11.78
2019-05-15T15:27:31.192Z,11.78
2019-05-15T15:30:01.467Z,11.82
2019-05-15T15:32:31.582Z,11.78
2019-05-15T15:35:01.742Z,11.77
2019-05-15T15:37:31.849Z,11.76
2019-05-15T15:40:01.936Z,11.74
2019-05-15T15:42:32.037Z,11.71
2019-05-15T15:45:02.185Z,11.77
2019-05-15T15:47:32.409Z,11.84
2019-05-15T15:50:02.545Z,11.85
2019-05-15T15:52:32.640Z,11.90
2019-05-15T15:55:02.735Z,11.96
2019-05-15T15:57:32.968Z,11.94
2019-05-15T16:00:03.579Z,11.94
2019-05-15T16:02:33.680Z,11.96
2019-05-15T16:05:04.360Z,11.94
2019-05-15T16:07:34.644Z,11.96
2019-05-15T16:10:05.128Z,11.98
2019-05-15T16:12:35.316Z,12.01
2019-05-15T16:15:09.754Z,12.00
2019-05-15T16:17:40.079Z,12.00
2019-05-15T16:20:11.153Z,12.02
2019-05-15T16:22:43.118Z,12.03
2019-05-15T16:25:13.240Z,12.06
2019-05-15T16:27:43.436Z,12.07
2019-05-15T16:30:13.707Z,12.05
2019-05-15T16:32:43.811Z,12.07
2019-05-15T16:35:14.970Z,12.06
2019-05-15T16:37:45.096Z,12.05
2019-05-15T16:40:15.289Z,12.05
2019-05-15T16:42:45.413Z,12.02
2019-05-15T16:45:15.535Z,12.01
2019-05-15T16:47:47.891Z,12.03
2019-05-15T16:50:18.257Z,12.05
2019-05-15T16:52:49.179Z,12.05
2019-05-15T16:55:20.187Z,12.08
2019-05-15T16:57:50.600Z,12.11
2019-05-15T17:00:20.791Z,12.15
2019-05-15T17:03:08.242Z,12.17
2019-05-15T17:05:23.845Z,12.16
2019-05-15T17:07:54.030Z,12.14
2019-05-15T17:10:24.147Z,12.07
2019-05-15T17:12:54.265Z,11.98
2019-05-15T17:15:24.403Z,11.86
2019-05-15T17:17:54.584Z,11.67
2019-05-15T17:20:24.673Z,11.50
2019-05-15T17:22:54.765Z,11.31
2019-05-15T17:25:25.796Z,11.18
2019-05-15T17:27:58.419Z,11.07
2019-05-15T17:30:29.168Z,10.95
2019-05-15T17:33:02.183Z,10.86
2019-05-15T17:35:32.317Z,10.78
2019-05-15T17:38:02.867Z,10.72
2019-05-15T17:40:33.088Z,10.65
2019-05-15T17:43:04.768Z,10.61
2019-05-15T17:45:38.971Z,10.52
2019-05-15T17:48:11.786Z,10.45
2019-05-15T17:50:48.678Z,10.39
2019-05-15T17:53:14.201Z,10.32
2019-05-15T17:55:47.903Z,10.23
2019-05-15T17:58:19.732Z,10.17
2019-05-15T18:00:50.569Z,10.08
2019-05-15T18:03:31.451Z,9.98
2019-05-15T18:06:01.663Z,9.92
2019-05-15T18:08:33.081Z,9.84
2019-05-15T18:11:03.265Z,9.80
2019-05-15T18:13:33.387Z,9.76
2019-05-15T18:16:05.421Z,9.75
2019-05-15T18:18:35.820Z,9.67
2019-05-15T18:21:08.781Z,9.64
2019-05-15T18:23:39.236Z,9.64
2019-05-15T18:26:11.285Z,9.57
2019-05-15T18:28:42.119Z,9.53
2019-05-15T18:31:12.847Z,9.46
2019-05-15T18:33:53.368Z,9.41
2019-05-15T18:36:16.232Z,9.30
2019-05-15T18:38:48.273Z,9.18
2019-05-15T18:41:19.590Z,9.17
2019-05-15T18:43:50.646Z,9.10
2019-05-15T18:46:24.035Z,9.01
2019-05-15T18:48:57.919Z,8.95
2019-05-15T18:51:28.595Z,8.88
2019-05-15T18:54:03.354Z,8.83
2019-05-15T18:56:38.594Z,8.84
2019-05-15T18:59:13.399Z,8.83
2019-05-15T19:01:47.988Z,8.81
2019-05-15T19:04:19.865Z,8.82
2019-05-15T19:06:50.148Z,8.81
2019-05-15T19:09:21.185Z,8.81
2019-05-15T19:11:51.530Z,8.78
2019-05-15T19:14:21.747Z,8.75
2019-05-15T19:16:52.410Z,8.72
2019-05-15T19:19:33.861Z,8.70
2019-05-15T19:22:07.873Z,8.70
2019-05-15T19:24:40.200Z,8.70
2019-05-15T19:27:18.678Z,8.71
2019-05-15T19:29:50.672Z,8.69
2019-05-15T19:32:21.142Z,8.65
2019-05-15T19:34:51.247Z,8.66
2019-05-15T19:37:21.392Z,8.68
2019-05-15T19:39:51.507Z,8.69
2019-05-15T19:42:21.623Z,8.71
2019-05-15T19:44:51.884Z,8.71
2019-05-15T19:47:23.446Z,8.75
2019-05-15T19:49:53.808Z,8.73
2019-05-15T19:52:24.035Z,8.71
2019-05-15T19:54:54.201Z,8.71
2019-05-15T19:57:29.563Z,8.71
2019-05-15T20:00:25.467Z,8.67
2019-05-15T20:02:38.054Z,8.64
2019-05-15T20:05:12.146Z,8.69
2019-05-15T20:07:45.385Z,8.66
2019-05-15T20:10:18.664Z,8.65
2019-05-15T20:12:53.624Z,8.66
2019-05-15T20:15:28.521Z,8.66
2019-05-15T20:18:05.054Z,8.63
2019-05-15T20:20:40.572Z,8.69
2019-05-15T20:23:11.748Z,8.63
2019-05-15T20:25:42.929Z,8.65
2019-05-15T20:28:24.394Z,8.64
2019-05-15T20:31:20.250Z,8.61
2019-05-15T20:34:04.960Z,8.59
2019-05-15T20:36:29.721Z,8.60
2019-05-15T20:39:03.631Z,8.53
2019-05-15T20:41:48.612Z,8.56
2019-05-15T20:44:19.143Z,8.52
2019-05-15T20:47:00.559Z,8.56
2019-05-15T20:49:28.523Z,8.56
2019-05-15T20:52:14.766Z,8.55
2019-05-15T20:54:49.903Z,8.55
2019-05-15T20:57:28.234Z,8.52
2019-05-15T21:00:10.851Z,8.56
2019-05-15T21:02:42.582Z,8.58
2019-05-15T21:05:14.238Z,8.54
2019-05-15T21:07:44.326Z,8.59
2019-05-15T21:10:15.393Z,8.58
2019-05-15T21:12:48.627Z,8.60
2019-05-15T21:15:21.360Z,8.62
2019-05-15T21:18:10.872Z,8.65
2019-05-15T21:20:22.810Z,8.67
2019-05-15T21:22:53.010Z,8.68
2019-05-15T21:25:23.594Z,8.73
2019-05-15T21:27:53.674Z,8.69
2019-05-15T21:30:23.801Z,8.67
2019-05-15T21:32:53.893Z,8.63
2019-05-15T21:35:23.927Z,8.67
2019-05-15T21:37:54.142Z,8.67
2019-05-15T21:40:24.175Z,8.64
2019-05-15T21:42:54.274Z,8.62
2019-05-15T21:45:24.315Z,8.64
2019-05-15T21:47:54.455Z,8.71
2019-05-15T21:50:24.478Z,8.67
2019-05-15T21:52:54.581Z,8.67
2019-05-15T21:55:24.627Z,8.70
2019-05-15T21:57:54.903Z,8.69
2019-05-15T22:00:32.410Z,8.75
2019-05-15T22:03:02.584Z,8.74
2019-05-15T22:05:32.740Z,8.73
2019-05-15T22:08:02.931Z,8.70
2019-05-15T22:10:32.960Z,8.73
2019-05-15T22:13:04.266Z,8.74
2019-05-15T22:15:34.402Z,8.71
2019-05-15T22:18:05.523Z,8.74
2019-05-15T22:20:35.542Z,8.75
2019-05-15T22:23:08.074Z,8.79
2019-05-15T22:25:38.560Z,8.82
2019-05-15T22:28:08.994Z,8.79
2019-05-15T22:30:39.640Z,8.85
2019-05-15T22:33:09.745Z,8.85
2019-05-15T22:35:40.043Z,8.81
2019-05-15T22:38:10.238Z,8.77
2019-05-15T22:40:40.783Z,8.80
2019-05-15T22:43:10.955Z,8.77
2019-05-15T22:45:40.989Z,8.78
2019-05-15T22:48:11.092Z,8.78
2019-05-15T22:50:41.162Z,8.80
2019-05-15T22:53:11.240Z,8.76
2019-05-15T22:55:41.269Z,8.77
2019-05-15T22:58:11.653Z,8.77
2019-05-15T23:00:41.741Z,8.76
2019-05-15T23:03:11.836Z,8.78
2019-05-15T23:05:41.914Z,8.78
2019-05-15T23:08:12.015Z,8.78
2019-05-15T23:10:42.283Z,8.78
2019-05-15T23:13:12.659Z,8.79
2019-05-15T23:15:42.727Z,8.81
2019-05-15T23:18:12.812Z,8.81
2019-05-15T23:20:42.879Z,8.83
2019-05-15T23:23:12.976Z,8.85
2019-05-15T23:25:43.040Z,8.85
2019-05-15T23:28:13.154Z,8.87
2019-05-15T23:30:43.332Z,8.86
2019-05-15T23:33:13.426Z,8.87
2019-05-15T23:35:43.520Z,8.89
2019-05-15T23:38:13.594Z,8.91
2019-05-15T23:40:43.671Z,8.92
2019-05-15T23:43:13.861Z,8.95
2019-05-15T23:45:43.930Z,8.97
2019-05-15T23:48:14.035Z,8.98
2019-05-15T23:50:44.103Z,9.03
2019-05-15T23:53:16.543Z,9.02
2019-05-15T23:55:45.956Z,9.03
2019-05-15T23:58:18.678Z,9.06
